PS52 weather

Alberter Farms Airport
Johnstown, Pennsylvania, United States

Public forecast

Using degrees Fahrenheit for public forecast. Weather courtesy of forecast.io.

METAR (pilot weather report)

Closest report is John Murtha Johnstown Cambria County Airport, 7.3 nm (13.5 km) N. Retrieved 2019/05/22 18:54 UTC (27 minutes ago):

KJST 221854Z AUTO 16009KT 10SM CLR 18/07 A3022 RMK AO2 SLP232 T01780067

TAF (pilot weather forecast)

Closest forecast is John Murtha Johnstown Cambria County Airport, 7.3 nm (13.5 km) N. Retrieved 2019/05/22 18:30 UTC (51 minutes ago):

TAF KJST 221726Z 2218/2318 15011G17KT P6SM SCT080 BKN250 FM230500 17005KT P6SM VCSH OVC050 FM231500 25012G19KT P6SM SCT025 BKN040